createdAt,value
2023-04-11T00:01:30.087Z,84.20
2023-04-11T00:03:59.428Z,69.20
2023-04-11T00:06:27.820Z,142.30
2023-04-11T00:08:57.038Z,100.40
2023-04-11T00:11:25.398Z,78.90
2023-04-11T00:13:58.886Z,86.90
2023-04-11T00:16:26.925Z,66.60
2023-04-11T00:18:57.334Z,63.50
2023-04-11T00:21:25.525Z,64.30
2023-04-11T00:23:54.280Z,64.30
2023-04-11T00:26:22.226Z,67.60
2023-04-11T00:28:50.293Z,66.10
2023-04-11T00:31:18.416Z,66.80
2023-04-11T00:33:46.286Z,67.00
2023-04-11T00:36:14.367Z,68.90
2023-04-11T00:38:42.424Z,69.40
2023-04-11T00:41:11.137Z,66.80
2023-04-11T00:43:39.084Z,67.00
2023-04-11T00:46:09.439Z,64.20
2023-04-11T00:48:37.596Z,63.90
2023-04-11T00:51:05.677Z,67.20
2023-04-11T00:53:35.327Z,67.90
2023-04-11T00:56:03.270Z,68.70
2023-04-11T00:58:32.159Z,80.60
2023-04-11T01:01:00.789Z,73.90
2023-04-11T01:03:29.258Z,63.30
2023-04-11T01:05:57.542Z,60.60
2023-04-11T01:08:26.520Z,59.10
2023-04-11T01:10:54.543Z,58.20
2023-04-11T01:13:22.665Z,56.80
2023-04-11T01:15:50.508Z,55.20
2023-04-11T01:18:18.597Z,55.70
2023-04-11T01:20:46.942Z,55.10
2023-04-11T01:23:21.526Z,56.10
2023-04-11T01:25:50.403Z,52.20
2023-04-11T01:28:19.543Z,53.40
2023-04-11T01:30:47.934Z,51.80
2023-04-11T01:33:16.729Z,55.80
2023-04-11T01:35:44.712Z,54.40
2023-04-11T01:38:12.753Z,49.70
2023-04-11T01:40:41.749Z,59.10
2023-04-11T01:43:10.035Z,105.00
2023-04-11T01:45:38.820Z,66.40
2023-04-11T01:48:08.567Z,67.00
2023-04-11T01:50:36.661Z,83.40
2023-04-11T01:53:05.811Z,107.30
2023-04-11T01:55:34.043Z,75.60
2023-04-11T01:58:01.994Z,66.60
2023-04-11T02:00:29.931Z,62.10
2023-04-11T02:02:58.069Z,52.30
2023-04-11T02:05:26.267Z,78.50
2023-04-11T02:07:56.981Z,85.30
2023-04-11T02:10:24.905Z,55.50
2023-04-11T02:12:52.860Z,74.50
2023-04-11T02:15:21.039Z,63.20
2023-04-11T02:17:49.558Z,58.10
2023-04-11T02:20:17.524Z,82.80
2023-04-11T02:22:45.781Z,76.20
2023-04-11T02:25:16.756Z,93.80
2023-04-11T02:27:44.688Z,70.00
2023-04-11T02:30:12.678Z,62.30
2023-04-11T02:32:40.818Z,57.50
2023-04-11T02:35:09.033Z,47.90
2023-04-11T02:37:37.488Z,47.00
2023-04-11T02:40:06.337Z,47.90
2023-04-11T02:42:34.405Z,46.60
2023-04-11T02:45:02.750Z,50.30
2023-04-11T02:47:30.670Z,48.10
2023-04-11T02:50:02.668Z,57.40
2023-04-11T02:52:34.841Z,47.40
2023-04-11T02:55:03.034Z,53.10
2023-04-11T02:57:31.264Z,52.00
2023-04-11T02:59:59.775Z,50.10
2023-04-11T03:02:36.196Z,49.60
2023-04-11T03:05:04.589Z,48.10
2023-04-11T03:07:34.613Z,70.20
2023-04-11T03:10:02.486Z,60.50
2023-04-11T03:12:30.488Z,49.20
2023-04-11T03:15:00.589Z,47.60
2023-04-11T03:17:29.140Z,48.10
2023-04-11T03:19:57.532Z,45.70
2023-04-11T03:22:26.018Z,52.70
2023-04-11T03:24:53.937Z,47.80
2023-04-11T03:27:23.000Z,44.80
2023-04-11T03:29:53.824Z,47.00
2023-04-11T03:32:34.421Z,44.50
2023-04-11T03:35:02.353Z,43.50
2023-04-11T03:37:30.539Z,41.80
2023-04-11T03:39:58.381Z,42.20
2023-04-11T03:42:26.498Z,43.40
2023-04-11T03:44:58.020Z,40.60
2023-04-11T03:47:26.378Z,39.40
2023-04-11T03:49:54.833Z,39.80
2023-04-11T03:52:23.311Z,40.10
2023-04-11T03:54:51.975Z,38.60
2023-04-11T03:57:20.235Z,38.90
2023-04-11T03:59:48.180Z,34.70
2023-04-11T04:02:16.536Z,40.00
2023-04-11T04:04:58.797Z,36.70
2023-04-11T04:07:30.217Z,37.90
2023-04-11T04:10:07.462Z,36.50
2023-04-11T04:12:36.869Z,39.30
2023-04-11T04:15:21.581Z,36.90
2023-04-11T04:17:51.561Z,40.10
2023-04-11T04:20:26.767Z,34.70
2023-04-11T04:22:58.116Z,34.20
2023-04-11T04:25:34.548Z,34.70
2023-04-11T04:28:03.282Z,103.20
2023-04-11T04:30:38.250Z,84.80
2023-04-11T04:33:12.577Z,54.00
2023-04-11T04:35:45.055Z,49.00
2023-04-11T04:38:18.108Z,44.70
2023-04-11T04:40:57.335Z,46.10
2023-04-11T04:43:27.356Z,41.50
2023-04-11T04:48:36.763Z,39.30
2023-04-11T04:51:05.696Z,40.90
2023-04-11T04:53:38.875Z,45.90
2023-04-11T04:56:08.407Z,48.50
2023-04-11T04:58:41.565Z,40.60
2023-04-11T05:01:12.456Z,37.90
2023-04-11T05:03:40.531Z,50.20
2023-04-11T05:06:13.770Z,92.00
2023-04-11T05:08:44.284Z,128.00
2023-04-11T05:11:12.691Z,101.60
2023-04-11T05:13:40.602Z,59.90
2023-04-11T05:16:09.180Z,41.70
2023-04-11T05:18:37.090Z,36.10
2023-04-11T05:21:05.438Z,32.30
2023-04-11T05:23:39.427Z,31.40
2023-04-11T05:26:08.540Z,35.10
2023-04-11T05:28:37.545Z,33.60
2023-04-11T05:31:12.255Z,38.10
2023-04-11T05:33:42.156Z,33.00
2023-04-11T05:36:14.555Z,29.40
2023-04-11T05:38:44.295Z,29.90
2023-04-11T05:41:13.139Z,29.40
2023-04-11T05:43:41.109Z,28.10
2023-04-11T05:46:10.100Z,35.30
2023-04-11T05:48:38.576Z,33.40
2023-04-11T05:51:07.876Z,29.70
2023-04-11T05:53:36.096Z,29.10
2023-04-11T05:56:06.822Z,30.20
2023-04-11T05:58:36.513Z,35.70
2023-04-11T06:01:05.247Z,59.60
2023-04-11T06:03:33.242Z,49.90
2023-04-11T06:06:01.268Z,32.90
2023-04-11T06:08:29.373Z,34.80
2023-04-11T06:10:57.231Z,31.30
2023-04-11T06:13:26.149Z,31.70
2023-04-11T06:15:54.122Z,31.30
2023-04-11T06:18:21.953Z,27.90
2023-04-11T06:20:49.953Z,35.80
2023-04-11T06:23:17.874Z,40.70
2023-04-11T06:25:46.155Z,33.60
2023-04-11T06:28:14.282Z,34.50
2023-04-11T06:30:42.175Z,39.70
2023-04-11T06:33:10.134Z,43.40
2023-04-11T06:35:38.150Z,48.10
2023-04-11T06:38:06.008Z,42.00
2023-04-11T06:40:34.066Z,41.10
2023-04-11T06:43:01.944Z,32.20
2023-04-11T06:45:29.842Z,45.40
2023-04-11T06:47:57.703Z,34.10
2023-04-11T06:50:25.620Z,37.10
2023-04-11T06:52:53.661Z,66.10
2023-04-11T06:55:23.113Z,35.40
2023-04-11T06:57:51.187Z,25.70
2023-04-11T07:00:19.984Z,26.90
2023-04-11T07:02:48.035Z,23.40
2023-04-11T07:05:16.465Z,21.30
2023-04-11T07:07:44.321Z,23.50
2023-04-11T07:10:12.434Z,24.30
2023-04-11T07:12:40.498Z,22.60
2023-04-11T07:15:09.354Z,21.30
2023-04-11T07:17:37.216Z,21.80
2023-04-11T07:20:08.922Z,23.20
2023-04-11T07:22:37.219Z,21.40
2023-04-11T07:25:05.376Z,19.60
2023-04-11T07:27:33.570Z,19.70
2023-04-11T07:30:01.562Z,22.00
2023-04-11T07:32:29.470Z,20.10
2023-04-11T07:34:57.292Z,20.60
2023-04-11T07:37:27.098Z,19.10
2023-04-11T07:39:54.973Z,20.60
2023-04-11T07:42:22.829Z,18.30
2023-04-11T07:44:51.108Z,18.20
2023-04-11T07:47:18.984Z,20.80
2023-04-11T07:49:46.779Z,18.90
2023-04-11T07:52:14.669Z,18.10
2023-04-11T07:54:42.612Z,20.10
2023-04-11T07:57:10.393Z,19.40
2023-04-11T07:59:38.198Z,19.50
2023-04-11T08:02:08.224Z,20.70
2023-04-11T08:04:37.831Z,21.10
2023-04-11T08:07:06.946Z,20.20
2023-04-11T08:09:34.860Z,21.90
2023-04-11T08:12:03.560Z,20.10
2023-04-11T08:14:31.413Z,20.80
2023-04-11T08:16:59.726Z,20.20
2023-04-11T08:19:27.667Z,19.40
2023-04-11T08:21:55.504Z,21.20
2023-04-11T08:24:23.297Z,19.20
2023-04-11T08:26:51.124Z,19.10
2023-04-11T08:29:18.955Z,33.80
2023-04-11T08:31:46.928Z,25.40
2023-04-11T08:34:14.867Z,24.00
2023-04-11T08:36:42.735Z,20.10
2023-04-11T08:39:11.967Z,20.30
2023-04-11T08:41:40.131Z,19.00
2023-04-11T08:44:12.500Z,16.90
2023-04-11T08:46:42.556Z,17.10
2023-04-11T08:49:11.220Z,16.70
2023-04-11T08:51:43.502Z,22.60
2023-04-11T08:54:12.260Z,17.10
2023-04-11T08:56:43.149Z,17.70
2023-04-11T08:59:11.128Z,24.40
2023-04-11T09:01:40.901Z,16.50
2023-04-11T09:04:10.700Z,20.20
2023-04-11T09:06:40.332Z,26.00
2023-04-11T09:09:08.825Z,24.50
2023-04-11T09:11:53.700Z,33.90
2023-04-11T09:14:26.130Z,23.50
2023-04-11T09:17:04.887Z,26.40
2023-04-11T09:19:34.747Z,27.50
2023-04-11T09:22:06.196Z,21.50
2023-04-11T09:24:35.985Z,22.80
2023-04-11T09:27:16.726Z,27.60
2023-04-11T09:29:46.620Z,21.50
2023-04-11T09:32:34.173Z,20.90
2023-04-11T09:35:20.692Z,24.70
2023-04-11T09:37:51.058Z,23.30
2023-04-11T09:40:21.346Z,31.10
2023-04-11T09:42:56.420Z,21.70
2023-04-11T09:45:25.654Z,21.20
2023-04-11T09:47:59.489Z,20.90
2023-04-11T09:50:28.399Z,24.70
2023-04-11T09:52:58.942Z,24.00
2023-04-11T09:55:27.443Z,25.30
2023-04-11T09:57:55.394Z,28.40
2023-04-11T10:00:32.374Z,30.90
2023-04-11T10:03:00.484Z,22.70
2023-04-11T10:05:30.625Z,34.00
2023-04-11T10:08:22.386Z,29.80
2023-04-11T10:10:52.925Z,28.90
2023-04-11T10:13:38.689Z,21.20
2023-04-11T10:16:18.798Z,18.00
2023-04-11T10:18:52.932Z,21.20
2023-04-11T10:21:41.060Z,24.10
2023-04-11T10:24:14.164Z,17.80
2023-04-11T10:29:33.350Z,23.80
2023-04-11T10:32:12.275Z,25.50
2023-04-11T10:35:00.069Z,22.70
2023-04-11T10:37:32.941Z,27.70
2023-04-11T10:40:00.996Z,30.30
2023-04-11T10:42:33.774Z,19.40
2023-04-11T10:45:27.692Z,18.50
2023-04-11T10:47:58.777Z,18.50
2023-04-11T10:50:26.835Z,23.60
2023-04-11T10:52:59.098Z,22.40
2023-04-11T10:55:28.979Z,14.80
2023-04-11T10:58:08.347Z,21.40
2023-04-11T11:00:51.993Z,19.30
2023-04-11T11:03:31.756Z,25.00
2023-04-11T11:05:59.845Z,34.20
2023-04-11T11:08:33.167Z,30.80
2023-04-11T11:11:01.975Z,35.60
2023-04-11T11:13:44.436Z,30.10
2023-04-11T11:16:18.196Z,37.40
2023-04-11T11:18:49.146Z,36.30
2023-04-11T11:21:26.753Z,40.80
2023-04-11T11:24:01.057Z,17.20
2023-04-11T11:26:39.974Z,34.40
2023-04-11T11:29:09.126Z,23.20
2023-04-11T11:31:47.835Z,23.10
2023-04-11T11:34:30.113Z,29.80
2023-04-11T11:36:59.722Z,22.80
2023-04-11T11:39:29.171Z,20.30
2023-04-11T11:41:58.167Z,21.00
2023-04-11T11:44:28.974Z,38.60
2023-04-11T11:47:15.401Z,39.00
2023-04-11T11:49:54.206Z,22.20
2023-04-11T11:52:34.153Z,25.00
2023-04-11T11:55:06.851Z,27.00
2023-04-11T11:57:49.822Z,21.00
2023-04-11T12:00:38.019Z,18.40
2023-04-11T12:03:10.289Z,20.90
2023-04-11T12:05:38.710Z,19.30
2023-04-11T12:08:07.875Z,18.90
2023-04-11T12:10:50.266Z,24.80
2023-04-11T12:13:22.473Z,33.50
2023-04-11T12:16:00.524Z,32.90
2023-04-11T12:18:28.849Z,34.40
2023-04-11T12:20:56.672Z,22.90
2023-04-11T12:23:24.751Z,22.20
2023-04-11T12:25:52.585Z,25.00
2023-04-11T12:28:20.624Z,22.70
2023-04-11T12:30:48.594Z,17.90
2023-04-11T12:33:16.585Z,18.90
2023-04-11T12:35:44.609Z,32.80
2023-04-11T12:38:14.983Z,41.60
2023-04-11T12:40:46.362Z,20.40
2023-04-11T12:43:14.315Z,32.40
2023-04-11T12:45:42.230Z,31.30
2023-04-11T12:48:10.528Z,24.00
2023-04-11T12:50:38.591Z,28.70
2023-04-11T12:53:06.497Z,22.80
2023-04-11T12:55:37.297Z,17.50
2023-04-11T12:58:05.176Z,17.80
2023-04-11T13:00:33.067Z,22.10
2023-04-11T13:03:01.188Z,25.00
2023-04-11T13:05:30.165Z,16.20
2023-04-11T13:07:58.048Z,18.00
2023-04-11T13:10:26.280Z,22.10
2023-04-11T13:12:58.633Z,16.50
2023-04-11T13:15:28.744Z,18.20
2023-04-11T13:17:56.610Z,18.60
2023-04-11T13:20:24.496Z,22.20
2023-04-11T13:22:52.368Z,16.70
2023-04-11T13:25:20.398Z,51.90
2023-04-11T13:27:48.484Z,18.50
2023-04-11T13:30:16.392Z,19.20
2023-04-11T13:32:44.358Z,16.30
2023-04-11T13:35:12.218Z,12.00
2023-04-11T13:37:40.112Z,20.00
2023-04-11T13:40:08.775Z,23.90
2023-04-11T13:42:36.696Z,26.00
2023-04-11T13:45:04.886Z,19.30
2023-04-11T13:47:36.029Z,22.50
2023-04-11T13:50:08.243Z,15.10
2023-04-11T13:52:36.215Z,16.30
2023-04-11T13:55:04.394Z,12.80
2023-04-11T13:57:32.285Z,9.30
2023-04-11T14:00:00.127Z,27.30
2023-04-11T14:02:28.137Z,101.20
2023-04-11T14:04:56.392Z,29.20
2023-04-11T14:07:24.422Z,11.80
2023-04-11T14:09:52.369Z,31.60
2023-04-11T14:12:20.232Z,57.50
2023-04-11T14:14:48.147Z,31.60
2023-04-11T14:17:16.159Z,21.60
2023-04-11T14:19:44.109Z,18.10
2023-04-11T14:22:12.109Z,12.40
2023-04-11T14:24:40.020Z,19.20
2023-04-11T14:27:08.659Z,14.50
2023-04-11T14:29:37.694Z,36.80
2023-04-11T14:32:07.402Z,24.80
2023-04-11T14:34:35.349Z,105.90
2023-04-11T14:37:03.542Z,56.10
2023-04-11T14:39:31.924Z,42.40
2023-04-11T14:42:02.080Z,11.20
2023-04-11T14:44:30.508Z,10.40
2023-04-11T14:46:58.456Z,22.60
2023-04-11T14:49:26.342Z,15.10
2023-04-11T14:51:54.277Z,20.60
2023-04-11T14:54:24.187Z,27.00
2023-04-11T14:56:52.496Z,27.90
2023-04-11T14:59:21.016Z,28.10
2023-04-11T15:01:49.330Z,47.10
2023-04-11T15:04:17.658Z,38.00
2023-04-11T15:06:45.770Z,28.10
2023-04-11T15:09:13.784Z,25.00
2023-04-11T15:11:41.649Z,13.90
2023-04-11T15:14:09.515Z,14.20
2023-04-11T15:16:37.447Z,15.70
2023-04-11T15:19:05.685Z,15.30
2023-04-11T15:21:33.484Z,11.60
2023-04-11T15:24:06.571Z,38.50
2023-04-11T15:26:34.592Z,22.10
2023-04-11T15:29:02.534Z,36.70
2023-04-11T15:31:30.767Z,34.90
2023-04-11T15:34:01.504Z,80.90
2023-04-11T15:36:29.851Z,40.70
2023-04-11T15:38:58.049Z,26.50
2023-04-11T15:41:26.204Z,30.60
2023-04-11T15:43:54.035Z,153.30
2023-04-11T15:46:21.913Z,248.60
2023-04-11T15:48:49.769Z,168.20
2023-04-11T15:51:17.613Z,65.40
2023-04-11T15:53:45.490Z,83.70
2023-04-11T15:56:13.643Z,69.20
2023-04-11T15:58:42.279Z,125.40
2023-04-11T16:01:25.855Z,81.90
2023-04-11T16:03:54.478Z,122.20
2023-04-11T16:06:22.575Z,129.10
2023-04-11T16:08:51.067Z,165.00
2023-04-11T16:11:18.999Z,74.70
2023-04-11T16:13:46.927Z,120.30
2023-04-11T16:16:14.949Z,37.20
2023-04-11T16:18:42.973Z,39.00
2023-04-11T16:21:15.905Z,42.90
2023-04-11T16:23:43.956Z,50.90
2023-04-11T16:26:12.231Z,64.20
2023-04-11T16:28:40.815Z,25.30
2023-04-11T16:31:09.584Z,17.10
2023-04-11T16:33:37.490Z,51.00
2023-04-11T16:36:06.402Z,18.70
2023-04-11T16:38:34.777Z,24.50
2023-04-11T16:41:03.597Z,40.10
2023-04-11T16:43:31.869Z,27.00
2023-04-11T16:45:59.922Z,24.80
2023-04-11T16:48:28.289Z,106.60
2023-04-11T16:50:56.247Z,77.70
2023-04-11T16:53:24.343Z,29.90
2023-04-11T16:55:53.706Z,160.00
2023-04-11T16:58:21.733Z,126.20
2023-04-11T17:00:51.280Z,69.10
2023-04-11T17:03:20.123Z,175.40
2023-04-11T17:05:49.060Z,46.80
2023-04-11T17:08:17.961Z,208.40
2023-04-11T17:10:45.786Z,83.10
2023-04-11T17:13:14.920Z,49.30
2023-04-11T17:15:43.234Z,43.70
2023-04-11T17:18:15.117Z,33.30
2023-04-11T17:20:43.763Z,221.80
2023-04-11T17:23:12.440Z,104.70
2023-04-11T17:25:40.742Z,43.50
2023-04-11T17:28:08.816Z,89.70
2023-04-11T17:30:37.859Z,51.60
2023-04-11T17:33:06.323Z,42.90
2023-04-11T17:35:34.695Z,75.50
2023-04-11T17:38:02.960Z,49.00
2023-04-11T17:40:31.545Z,27.60
2023-04-11T17:42:59.675Z,12.60
2023-04-11T17:45:28.283Z,14.10
2023-04-11T17:47:56.474Z,10.50
2023-04-11T17:50:24.589Z,12.70
2023-04-11T17:52:53.219Z,18.40
2023-04-11T17:55:21.808Z,35.50
2023-04-11T17:57:51.721Z,24.30
2023-04-11T18:00:23.215Z,44.50
2023-04-11T18:02:57.829Z,61.10
2023-04-11T18:05:29.551Z,103.20
2023-04-11T18:07:59.637Z,111.10
2023-04-11T18:10:30.728Z,79.90
2023-04-11T18:12:59.030Z,124.20
2023-04-11T18:15:28.067Z,187.30
2023-04-11T18:17:56.656Z,135.10
2023-04-11T18:20:24.910Z,209.80
2023-04-11T18:22:57.484Z,134.40
2023-04-11T18:25:25.703Z,182.90
2023-04-11T18:27:54.048Z,147.70
2023-04-11T18:30:22.205Z,125.20
2023-04-11T18:32:54.035Z,113.30
2023-04-11T18:35:23.703Z,83.60
2023-04-11T18:37:52.053Z,129.90
2023-04-11T18:40:20.607Z,198.00
2023-04-11T18:42:53.195Z,92.70
2023-04-11T18:45:22.465Z,110.30
2023-04-11T18:47:51.208Z,122.10
2023-04-11T18:50:20.097Z,94.50
2023-04-11T18:52:52.550Z,72.60
2023-04-11T18:57:56.021Z,178.10
2023-04-11T19:00:26.146Z,118.20
2023-04-11T19:02:54.299Z,41.40
2023-04-11T19:05:25.485Z,91.80
2023-04-11T19:07:54.263Z,73.60
2023-04-11T19:10:23.059Z,57.60
2023-04-11T19:12:51.287Z,28.00
2023-04-11T19:15:19.747Z,12.50
2023-04-11T19:17:48.201Z,21.00
2023-04-11T19:20:16.753Z,38.20
2023-04-11T19:22:46.434Z,97.10
2023-04-11T19:25:14.864Z,62.20
2023-04-11T19:27:43.405Z,63.40
2023-04-11T19:30:14.038Z,16.60
2023-04-11T19:32:44.183Z,15.30
2023-04-11T19:35:14.176Z,60.80
2023-04-11T19:37:42.845Z,28.20
2023-04-11T19:40:11.504Z,106.00
2023-04-11T19:42:40.409Z,49.80
2023-04-11T19:45:10.704Z,69.60
2023-04-11T19:47:42.018Z,49.00
2023-04-11T19:50:14.899Z,43.20
2023-04-11T19:52:43.617Z,24.90
2023-04-11T19:55:12.688Z,16.20
2023-04-11T19:57:43.622Z,42.20
2023-04-11T20:00:14.485Z,76.20
2023-04-11T20:02:46.058Z,22.50
2023-04-11T20:05:19.294Z,18.00
2023-04-11T20:07:48.166Z,18.90
2023-04-11T20:10:16.740Z,24.70
2023-04-11T20:12:45.106Z,10.80
2023-04-11T20:15:13.167Z,9.80
2023-04-11T20:17:41.815Z,15.50
2023-04-11T20:20:12.390Z,17.70
2023-04-11T20:22:40.498Z,31.40
2023-04-11T20:25:11.912Z,48.40
2023-04-11T20:27:41.029Z,26.80
2023-04-11T20:30:12.598Z,15.80
2023-04-11T20:32:41.468Z,35.50
2023-04-11T20:35:12.267Z,19.20
2023-04-11T20:37:43.763Z,16.10
2023-04-11T20:40:14.520Z,112.10
2023-04-11T20:42:45.875Z,32.20
2023-04-11T20:45:20.706Z,13.20
2023-04-11T20:47:50.410Z,20.00
2023-04-11T20:50:19.534Z,17.40
2023-04-11T20:52:52.635Z,14.50
2023-04-11T20:55:21.067Z,11.20
2023-04-11T20:57:49.241Z,25.80
2023-04-11T21:00:18.490Z,27.80
2023-04-11T21:02:50.209Z,15.80
2023-04-11T21:05:25.082Z,15.10
2023-04-11T21:07:54.579Z,12.00
2023-04-11T21:10:22.754Z,72.30
2023-04-11T21:12:54.350Z,38.70
2023-04-11T21:15:22.884Z,104.00
2023-04-11T21:17:52.383Z,46.10
2023-04-11T21:20:22.317Z,77.00
2023-04-11T21:22:55.350Z,25.40
2023-04-11T21:25:24.168Z,31.80
2023-04-11T21:27:52.217Z,51.80
2023-04-11T21:30:20.452Z,35.10
2023-04-11T21:32:48.396Z,29.40
2023-04-11T21:35:16.360Z,9.90
2023-04-11T21:37:45.505Z,13.80
2023-04-11T21:40:14.457Z,47.70
2023-04-11T21:42:42.386Z,38.20
2023-04-11T21:45:10.515Z,48.80
2023-04-11T21:47:38.613Z,18.00
2023-04-11T21:50:07.784Z,12.30
2023-04-11T21:52:35.675Z,32.00
2023-04-11T21:55:06.438Z,59.10
2023-04-11T21:57:36.114Z,54.90
2023-04-11T22:00:05.607Z,26.30
2023-04-11T22:02:41.127Z,24.20
2023-04-11T22:05:09.798Z,14.60
2023-04-11T22:07:38.555Z,10.70
2023-04-11T22:10:10.040Z,94.80
2023-04-11T22:12:38.936Z,132.80
2023-04-11T22:15:07.826Z,74.60
2023-04-11T22:17:37.336Z,53.20
2023-04-11T22:20:06.924Z,28.20
2023-04-11T22:22:35.459Z,16.10
2023-04-11T22:25:03.614Z,32.90
2023-04-11T22:27:34.652Z,13.10
2023-04-11T22:30:03.115Z,20.50
2023-04-11T22:32:31.161Z,8.20
2023-04-11T22:34:59.967Z,7.20
2023-04-11T22:37:53.839Z,8.40
2023-04-11T22:40:24.653Z,10.00
2023-04-11T22:42:54.152Z,18.80
2023-04-11T22:45:23.428Z,128.30
2023-04-11T22:47:54.353Z,120.20
2023-04-11T22:50:23.641Z,19.80
2023-04-11T22:52:51.644Z,18.10
2023-04-11T22:55:21.307Z,33.40
2023-04-11T22:57:49.877Z,126.40
2023-04-11T23:00:18.891Z,237.20
2023-04-11T23:02:47.339Z,153.80
2023-04-11T23:05:16.896Z,69.80
2023-04-11T23:07:45.239Z,37.10
2023-04-11T23:10:15.375Z,10.40
2023-04-11T23:12:44.558Z,30.80
2023-04-11T23:15:12.578Z,24.70
2023-04-11T23:17:41.521Z,42.20
2023-04-11T23:20:11.217Z,20.30
2023-04-11T23:22:42.243Z,25.30
2023-04-11T23:25:14.205Z,117.40
2023-04-11T23:27:43.663Z,64.30
2023-04-11T23:30:12.813Z,30.80
2023-04-11T23:32:41.584Z,45.40
2023-04-11T23:35:09.628Z,22.10
2023-04-11T23:37:37.682Z,78.60
2023-04-11T23:40:10.574Z,19.70
2023-04-11T23:42:39.656Z,156.60
2023-04-11T23:45:09.042Z,100.10
2023-04-11T23:47:37.460Z,13.30
2023-04-11T23:50:05.979Z,45.80
2023-04-11T23:52:34.475Z,40.20
2023-04-11T23:55:02.553Z,44.60
2023-04-11T23:57:30.538Z,19.90
2023-04-11T23:59:58.411Z,49.00
